Time;durP1;ratioP1;P1;durP2;ratioP2;P2;SDS_P1;SDS_P2;PMS_P1;PMS_P2;Temp;Humidity;BMP_temperature;BMP_pressure;BME280_temperature;BME280_humidity;BME280_pressure;Samples;Min_cycle;Max_cycle;Signal;HPM_P1;HPM_P2
2022/11/17 00:00:18;;;;;;;8.70;4.85;;;;;;;5.40;95.87;100092.44;4955935;29;20023;-75
2022/11/17 00:02:44;;;;;;;8.20;4.35;;;;;;;5.34;95.77;100087.63;4955451;29;20412;-75
2022/11/17 00:05:09;;;;;;;8.13;4.72;;;;;;;5.39;95.93;100093.44;4955601;29;20534;-74
2022/11/17 00:07:35;;;;;;;7.75;4.93;;;;;;;5.34;96.45;100076.91;4955823;29;20030;-75
2022/11/17 00:10:00;;;;;;;9.00;4.93;;;;;;;5.30;96.13;100086.25;4956244;29;20035;-74
2022/11/17 00:15:10;;;;;;;9.82;4.32;;;;;;;5.37;96.07;100071.25;4956785;28;20074;-75
2022/11/17 00:17:35;;;;;;;8.95;5.05;;;;;;;5.30;95.68;100075.53;4971750;28;20054;-74
2022/11/17 00:22:44;;;;;;;8.20;5.00;;;;;;;5.31;95.30;100066.47;4961031;28;20050;-75
2022/11/17 00:25:10;;;;;;;9.32;4.78;;;;;;;5.36;95.36;100065.06;4954636;28;20031;-74
2022/11/17 00:27:36;;;;;;;8.43;5.43;;;;;;;5.37;95.71;100060.53;4954632;29;20118;-74
2022/11/17 00:30:02;;;;;;;8.82;4.75;;;;;;;5.35;95.78;100059.84;4966447;28;20033;-74
2022/11/17 00:35:12;;;;;;;9.40;5.28;;;;;;;5.29;96.35;100047.00;4974813;28;20033;-75
2022/11/17 00:38:14;;;;;;;11.10;5.30;;;;;;;5.27;95.28;100044.44;4974243;28;20031;-75
2022/11/17 00:40:27;;;;;;;9.73;5.72;;;;;;;5.19;95.98;100041.63;4975127;28;20038;-74
2022/11/17 00:42:53;;;;;;;9.13;5.97;;;;;;;5.23;95.61;100044.88;4974185;28;20045;-75
2022/11/17 00:45:18;;;;;;;11.07;6.10;;;;;;;5.28;95.51;100050.63;4973504;28;20022;-75
2022/11/17 00:47:44;;;;;;;11.55;5.78;;;;;;;5.20;95.45;100031.75;4975253;28;20046;-75
2022/11/17 00:50:09;;;;;;;7.75;5.10;;;;;;;5.24;95.47;100043.88;4965867;28;20022;-75
2022/11/17 00:52:34;;;;;;;10.32;5.53;;;;;;;5.23;95.37;100034.16;4973625;28;20086;-75
2022/11/17 00:55:00;;;;;;;13.98;5.30;;;;;;;5.22;95.37;100027.94;4974060;28;20030;-74
2022/11/17 00:57:26;;;;;;;8.18;5.75;;;;;;;5.25;95.52;100035.69;4973808;28;20038;-74
2022/11/17 00:59:51;;;;;;;9.82;5.50;;;;;;;5.12;95.74;100030.63;4973608;28;20125;-75
2022/11/17 01:02:16;;;;;;;9.70;5.65;;;;;;;5.25;95.46;100018.75;4968810;28;20087;-75
2022/11/17 01:04:42;;;;;;;8.35;5.72;;;;;;;5.23;95.28;100026.09;4954366;29;20102;-75
2022/11/17 01:07:07;;;;;;;7.28;5.18;;;;;;;5.02;95.69;100013.72;4955328;29;20023;-75
2022/11/17 01:09:32;;;;;;;8.93;6.00;;;;;;;5.09;94.92;100009.47;4955193;29;20043;-75
2022/11/17 01:11:58;;;;;;;8.55;5.65;;;;;;;5.17;95.33;100009.59;4953976;29;20030;-75
2022/11/17 01:14:27;;;;;;;13.93;6.20;;;;;;;5.21;95.28;100011.97;4954182;28;20051;-75
2022/11/17 01:16:53;;;;;;;10.20;6.25;;;;;;;5.10;95.49;100011.16;4969819;28;20027;-74
2022/11/17 01:19:19;;;;;;;9.95;6.30;;;;;;;5.18;95.38;100003.22;4960546;28;20026;-74
2022/11/17 01:21:45;;;;;;;8.77;6.20;;;;;;;5.21;95.45;100011.97;4957673;28;20027;-75
2022/11/17 01:24:12;;;;;;;10.02;6.75;;;;;;;5.24;94.82;100006.31;4954042;29;20039;-75
2022/11/17 01:26:38;;;;;;;11.70;6.45;;;;;;;5.11;95.50;100007.47;4954897;28;20114;-75
2022/11/17 01:29:04;;;;;;;9.35;6.80;;;;;;;5.18;94.76;100003.22;4957235;28;20030;-75
2022/11/17 01:31:32;;;;;;;15.57;6.72;;;;;;;5.07;95.25;100002.53;4974433;28;20023;-75
2022/11/17 01:33:58;;;;;;;9.63;6.38;;;;;;;5.11;95.58;99991.38;4972852;28;20026;-75
2022/11/17 01:39:16;;;;;;;9.18;6.40;;;;;;;5.08;95.42;99980.91;4954708;29;20373;-75
2022/11/17 01:41:42;;;;;;;15.38;7.13;;;;;;;5.05;95.20;99973.16;4953532;29;20118;-74
2022/11/17 01:44:47;;;;;;;9.80;7.00;;;;;;;4.96;95.15;99982.09;4953755;29;20050;-74
2022/11/17 01:47:19;;;;;;;10.30;6.93;;;;;;;5.03;95.90;99967.13;4970287;28;20042;-75
2022/11/17 01:49:46;;;;;;;13.30;7.30;;;;;;;5.08;95.00;99958.59;4980408;28;20043;-75
2022/11/17 01:52:13;;;;;;;18.30;7.40;;;;;;;4.89;95.93;99944.28;4980834;28;20037;-75
2022/11/17 01:54:40;;;;;;;12.85;6.65;;;;;;;4.91;95.90;99952.19;4972950;28;20033;-74
2022/11/17 01:57:11;;;;;;;11.05;7.38;;;;;;;5.03;95.63;99948.34;4973339;28;20031;-75
2022/11/17 01:59:39;;;;;;;13.85;7.35;;;;;;;4.90;96.15;99945.13;4973152;28;20471;-74
2022/11/17 02:02:05;;;;;;;11.25;7.03;;;;;;;4.85;96.21;99936.66;4972914;28;20031;-75
2022/11/17 02:04:43;;;;;;;12.07;7.95;;;;;;;5.02;95.43;99938.59;4971964;28;20034;-74
2022/11/17 02:07:16;;;;;;;11.95;6.57;;;;;;;4.88;95.72;99936.34;4972225;28;20109;-75
2022/11/17 02:09:42;;;;;;;11.07;7.22;;;;;;;4.98;95.79;99950.59;4971668;28;20118;-74
2022/11/17 02:12:10;;;;;;;11.13;7.40;;;;;;;4.99;95.15;99949.59;4972017;28;20034;-74
2022/11/17 02:14:37;;;;;;;9.27;7.22;;;;;;;4.86;95.29;99938.34;4971319;28;20038;-74
2022/11/17 02:17:03;;;;;;;10.30;7.65;;;;;;;4.92;95.58;99929.72;4971806;28;20034;-75
2022/11/17 02:19:35;;;;;;;11.57;7.40;;;;;;;4.85;95.59;99936.66;4966606;28;20419;-75
2022/11/17 02:22:32;;;;;;;8.93;7.05;;;;;;;4.89;95.45;99944.28;4952863;29;20019;-75
2022/11/17 02:25:16;;;;;;;11.75;7.93;;;;;;;4.80;95.65;99941.59;4952673;29;20480;-74
2022/11/17 02:28:03;;;;;;;12.10;7.13;;;;;;;4.73;95.81;99916.34;4952744;29;20132;-75
2022/11/17 02:30:39;;;;;;;15.45;7.95;;;;;;;4.72;96.11;99920.03;4967202;28;20034;-75
2022/11/17 02:33:30;;;;;;;10.23;7.47;;;;;;;4.82;95.18;99926.22;4971537;28;20034;-75
2022/11/17 02:36:08;;;;;;;15.15;7.10;;;;;;;4.80;95.12;99917.47;4968023;28;20028;-75
2022/11/17 02:38:39;;;;;;;11.68;7.18;;;;;;;4.66;95.58;99921.44;4962775;28;20033;-75
2022/11/17 02:41:15;;;;;;;8.20;6.00;;;;;;;4.72;95.69;99925.41;4968369;28;20031;-76
2022/11/17 02:44:06;;;;;;;11.00;8.20;;;;;;;4.63;95.47;99927.97;4953621;28;20062;-75
2022/11/17 02:46:36;;;;;;;9.97;7.57;;;;;;;4.62;94.93;99915.50;4951844;28;20075;-75
2022/11/17 02:49:19;;;;;;;18.40;6.88;;;;;;;4.87;94.02;99918.56;4957279;28;20282;-76
2022/11/17 02:51:49;;;;;;;12.48;6.82;;;;;;;4.77;94.94;99912.41;4974971;28;20110;-75
2022/11/17 02:54:14;;;;;;;10.77;7.93;;;;;;;4.95;94.01;99916.00;4975111;28;20027;-75
2022/11/17 02:56:43;;;;;;;9.25;6.53;;;;;;;4.83;94.45;99914.50;4975035;28;20038;-75
2022/11/17 02:59:12;;;;;;;10.10;7.20;;;;;;;4.73;94.42;99905.63;4975454;28;20031;-75
2022/11/17 03:02:02;;;;;;;10.35;8.07;;;;;;;4.78;94.61;99908.72;4975288;28;20038;-76
2022/11/17 03:04:49;;;;;;;9.85;6.95;;;;;;;4.78;94.12;99909.56;4975330;28;20042;-74
2022/11/17 03:07:45;;;;;;;11.52;6.97;;;;;;;4.73;94.29;99916.34;4976079;28;20035;-75
2022/11/17 03:10:37;;;;;;;10.73;7.32;;;;;;;4.55;95.14;99909.03;4976156;28;20053;-73
2022/11/17 03:27:45;;;;;;;9.32;7.63;;;;;;;4.32;94.92;99875.53;4975368;28;20120;-75
2022/11/17 03:30:11;;;;;;;10.68;6.93;;;;;;;4.49;93.90;99866.72;4974436;28;20039;-76
2022/11/17 03:32:40;;;;;;;23.85;8.10;;;;;;;4.59;93.54;99872.94;4973939;28;20031;-75
2022/11/17 03:35:13;;;;;;;15.40;8.07;;;;;;;4.42;93.69;99875.50;4975437;28;20026;-75
2022/11/17 03:37:43;;;;;;;10.45;7.43;;;;;;;4.38;94.01;99869.59;4973796;28;20034;-75
2022/11/17 03:40:11;;;;;;;11.27;7.47;;;;;;;4.30;94.00;99856.91;4974214;28;20515;-76
2022/11/17 03:42:45;;;;;;;10.77;7.55;;;;;;;4.43;93.75;99877.19;4974169;28;20033;-76
2022/11/17 03:45:19;;;;;;;9.85;7.18;;;;;;;4.32;94.38;99859.44;4974405;28;20123;-76
2022/11/17 03:47:47;;;;;;;17.00;7.82;;;;;;;4.38;93.92;99864.22;4974310;28;20078;-76
2022/11/17 03:50:20;;;;;;;9.77;7.40;;;;;;;4.55;93.25;99860.78;4975595;28;20227;-76
2022/11/17 03:52:47;;;;;;;9.88;7.30;;;;;;;4.44;93.50;99863.66;4990111;28;20027;-76
2022/11/17 03:55:13;;;;;;;9.95;7.38;;;;;;;4.37;93.96;99854.50;4973914;28;20031;-76
2022/11/17 03:58:00;;;;;;;11.30;7.30;;;;;;;4.41;93.60;99850.53;4974075;28;20031;-76
2022/11/17 04:00:25;;;;;;;11.75;7.38;;;;;;;4.27;93.65;99834.91;4971536;28;20069;-76
2022/11/17 04:02:54;;;;;;;11.50;7.85;;;;;;;4.26;94.30;99833.22;4970562;28;20043;-75
2022/11/17 04:05:20;;;;;;;10.45;7.38;;;;;;;4.25;94.00;99826.16;4970868;28;20027;-76
2022/11/17 04:07:46;;;;;;;9.93;7.65;;;;;;;4.21;94.16;99819.41;4970313;28;20038;-76
2022/11/17 04:10:14;;;;;;;11.15;7.07;;;;;;;4.42;93.86;99822.72;4970563;28;20035;-75
2022/11/17 04:18:09;;;;;;;12.77;7.28;;;;;;;4.27;94.12;99824.19;4955199;29;20081;-75
2022/11/17 04:20:37;;;;;;;9.60;7.00;;;;;;;4.25;93.97;99815.47;4970125;28;20054;-75
2022/11/17 04:23:06;;;;;;;11.95;8.15;;;;;;;4.24;93.45;99819.13;4955037;29;20071;-76
2022/11/17 04:31:26;;;;;;;9.32;7.40;;;;;;;4.18;93.97;99814.34;4955074;29;20050;-76
2022/11/17 04:33:57;;;;;;;11.45;7.53;;;;;;;4.13;94.53;99805.88;4970137;28;20047;-76
2022/11/17 04:36:26;;;;;;;23.00;8.30;;;;;;;4.13;94.49;99805.88;4970399;28;20047;-76
2022/11/17 04:38:53;;;;;;;12.48;8.27;;;;;;;4.16;94.04;99801.06;4970113;28;20039;-76
2022/11/17 04:44:06;;;;;;;16.65;8.73;;;;;;;4.03;94.46;99766.56;4954793;29;20027;-76
2022/11/17 04:46:34;;;;;;;12.82;8.23;;;;;;;4.11;94.46;99803.34;4969635;28;20086;-76
2022/11/17 04:49:00;;;;;;;13.27;8.65;;;;;;;4.21;94.18;99803.31;4969616;28;20029;-75
2022/11/17 04:51:26;;;;;;;12.32;8.30;;;;;;;4.06;94.63;99795.75;4969548;28;20110;-75
2022/11/17 04:53:51;;;;;;;10.93;8.20;;;;;;;4.13;94.16;99792.50;4969261;28;20041;-75
2022/11/17 04:56:18;;;;;;;14.30;8.60;;;;;;;4.12;94.13;99767.53;4969552;28;20035;-75
2022/11/17 04:58:44;;;;;;;18.67;8.93;;;;;;;4.18;94.29;99792.91;4969271;28;20041;-75
2022/11/17 05:01:12;;;;;;;13.23;9.23;;;;;;;4.13;94.32;99779.09;4954165;28;20392;-75
2022/11/17 05:03:49;;;;;;;13.07;8.00;;;;;;;4.17;94.17;99770.63;4969002;28;20035;-75
2022/11/17 05:06:22;;;;;;;11.73;8.98;;;;;;;4.03;94.19;99769.22;4954266;28;20031;-75
2022/11/17 05:08:49;;;;;;;16.23;9.52;;;;;;;4.15;94.15;99788.66;4954584;28;20035;-75
2022/11/17 05:14:01;;;;;;;14.32;9.45;;;;;;;4.03;94.15;99779.94;4953935;29;20057;-75
2022/11/17 05:19:18;;;;;;;14.93;9.75;;;;;;;4.02;94.19;99780.94;4954322;29;20558;-75
2022/11/17 05:21:43;;;;;;;14.73;10.40;;;;;;;4.05;94.11;99778.00;4969040;28;20035;-75
2022/11/17 05:24:08;;;;;;;14.45;10.18;;;;;;;4.03;94.03;99774.59;4968634;28;20042;-75
2022/11/17 05:26:36;;;;;;;12.15;8.75;;;;;;;3.95;94.31;99771.78;4953301;29;20058;-75
2022/11/17 05:29:04;;;;;;;15.30;8.95;;;;;;;3.95;94.34;99771.78;4953928;28;20031;-75
2022/11/17 05:31:30;;;;;;;13.90;9.27;;;;;;;4.03;94.10;99774.59;4953090;29;20062;-75
2022/11/17 05:33:56;;;;;;;13.70;9.68;;;;;;;4.06;93.98;99760.94;4968312;28;20062;-75
2022/11/17 05:36:24;;;;;;;15.27;9.65;;;;;;;3.99;94.45;99767.00;4952725;29;20031;-74
2022/11/17 05:38:50;;;;;;;14.48;9.70;;;;;;;3.89;94.62;99777.72;4969109;28;20031;-75
2022/11/17 05:41:16;;;;;;;14.43;10.48;;;;;;;4.04;94.27;99770.06;4953797;28;20035;-75
2022/11/17 05:43:42;;;;;;;20.08;11.15;;;;;;;3.90;94.34;99757.13;4952560;28;20038;-75
2022/11/17 05:46:07;;;;;;;14.27;10.90;;;;;;;3.86;94.54;99786.03;4953597;28;20035;-75
2022/11/17 05:48:33;;;;;;;17.77;11.00;;;;;;;3.85;94.81;99768.28;4968403;28;20064;-75
2022/11/17 05:51:00;;;;;;;16.38;11.20;;;;;;;3.84;94.91;99774.59;4968169;28;20058;-76
2022/11/17 05:53:26;;;;;;;15.45;11.48;;;;;;;3.82;94.80;99760.53;4968192;28;20113;-76
2022/11/17 05:56:05;;;;;;;17.55;10.80;;;;;;;3.86;94.60;99772.66;4951910;28;20062;-75
2022/11/17 05:58:33;;;;;;;15.65;10.93;;;;;;;3.87;94.65;99773.50;4968374;28;20102;-76
2022/11/17 06:00:58;;;;;;;16.73;11.18;;;;;;;3.92;94.65;99761.38;4953465;28;20047;-75
2022/11/17 06:03:29;;;;;;;21.25;11.32;;;;;;;3.87;94.30;99763.63;4952452;28;20129;-75
2022/11/17 06:05:54;;;;;;;19.63;11.13;;;;;;;3.92;94.37;99772.09;4968159;28;20034;-74
2022/11/17 06:08:20;;;;;;;15.80;10.95;;;;;;;3.91;94.57;99748.09;4968593;28;20027;-74
2022/11/17 06:10:45;;;;;;;16.33;11.07;;;;;;;3.95;94.40;99745.00;4968130;28;20126;-74
2022/11/17 06:13:11;;;;;;;17.48;11.10;;;;;;;4.01;94.35;99748.94;4952292;29;20488;-75
2022/11/17 06:15:37;;;;;;;16.92;12.15;;;;;;;3.92;94.30;99745.31;4953257;28;20566;-75
2022/11/17 06:18:14;;;;;;;16.52;11.10;;;;;;;3.94;94.19;99746.00;4952063;29;20027;-74
2022/11/17 06:20:43;;;;;;;15.43;11.70;;;;;;;3.82;94.27;99723.03;4951912;29;20118;-75
2022/11/17 06:23:10;;;;;;;15.25;11.07;;;;;;;3.84;94.61;99742.47;4952137;28;20027;-74
2022/11/17 06:25:37;;;;;;;19.05;11.25;;;;;;;3.88;94.12;99743.91;4971723;28;20019;-75
2022/11/17 06:28:07;;;;;;;16.63;12.20;;;;;;;3.80;94.41;99741.09;4957527;28;20034;-75
2022/11/17 06:30:33;;;;;;;17.93;12.13;;;;;;;3.82;94.19;99733.75;4972586;28;20023;-75
2022/11/17 06:32:59;;;;;;;17.50;11.70;;;;;;;3.84;94.23;99737.13;4956266;29;20049;-75
2022/11/17 06:35:25;;;;;;;20.07;11.73;;;;;;;3.83;94.70;99727.41;4956160;29;20031;-75
2022/11/17 06:37:50;;;;;;;21.55;12.32;;;;;;;3.74;94.07;99725.59;4955895;28;20027;-74
2022/11/17 06:40:16;;;;;;;22.67;13.45;;;;;;;3.73;94.63;99734.63;4972331;28;20543;-74
2022/11/17 06:45:25;;;;;;;22.57;11.10;;;;;;;3.74;94.33;99736.31;4957668;29;20039;-74
2022/11/17 06:47:52;;;;;;;17.00;12.07;;;;;;;3.74;94.77;99725.59;4956944;28;20035;-74
2022/11/17 06:50:18;;;;;;;20.20;11.88;;;;;;;3.80;94.55;99741.09;4957410;28;20031;-74
2022/11/17 06:52:43;;;;;;;15.25;11.13;;;;;;;3.84;93.95;99721.06;4955769;28;20030;-74
2022/11/17 06:55:08;;;;;;;17.67;11.18;;;;;;;3.89;93.67;99724.16;4957333;29;20034;-75
2022/11/17 06:57:34;;;;;;;16.42;11.27;;;;;;;3.84;94.36;99731.78;4971698;28;20427;-74
2022/11/17 06:59:59;;;;;;;21.30;11.90;;;;;;;3.92;93.45;99739.97;4971772;28;20081;-74
2022/11/17 07:02:25;;;;;;;15.30;10.50;;;;;;;3.81;94.02;99748.13;4971208;28;20063;-74
2022/11/17 07:04:51;;;;;;;20.63;10.53;;;;;;;3.77;93.96;99720.78;4971762;28;20031;-74
2022/11/17 07:07:16;;;;;;;18.67;11.50;;;;;;;3.80;93.61;99735.75;4972046;28;20051;-74
2022/11/17 07:09:41;;;;;;;16.47;10.97;;;;;;;3.89;93.74;99740.22;4971600;28;20031;-75
2022/11/17 07:12:07;;;;;;;18.85;11.93;;;;;;;3.86;93.82;99740.53;4955455;28;20074;-74
2022/11/17 07:14:32;;;;;;;21.13;11.77;;;;;;;3.69;94.31;99727.84;4971328;28;20034;-74
2022/11/17 07:16:57;;;;;;;15.63;11.23;;;;;;;3.68;93.94;99747.59;4971887;28;20039;-74
2022/11/17 07:19:23;;;;;;;16.20;10.77;;;;;;;3.69;94.15;99738.56;4971746;28;20050;-74
2022/11/17 07:21:48;;;;;;;14.73;10.65;;;;;;;3.67;94.14;99724.50;4971561;28;20058;-74
2022/11/17 07:24:13;;;;;;;19.17;11.82;;;;;;;3.75;94.08;99743.34;4971589;28;20031;-72
2022/11/17 07:26:39;;;;;;;15.05;11.50;;;;;;;3.84;94.11;99747.84;4971474;28;20035;-71
2022/11/17 07:29:04;;;;;;;20.70;12.52;;;;;;;3.69;94.13;99727.84;4956041;29;20042;-71
2022/11/17 07:31:29;;;;;;;20.27;11.00;;;;;;;3.70;94.14;99725.03;4953593;28;20476;-71
2022/11/17 07:33:55;;;;;;;25.33;11.67;;;;;;;3.69;94.30;99733.22;4960349;28;20042;-71
2022/11/17 07:36:20;;;;;;;22.17;11.25;;;;;;;3.84;94.29;99742.47;4955836;28;20031;-71
2022/11/17 07:38:46;;;;;;;14.25;10.88;;;;;;;3.68;94.08;99726.16;4960294;28;20027;-71
2022/11/17 07:41:13;;;;;;;16.58;11.18;;;;;;;3.73;94.03;99729.28;4975575;28;20040;-72
2022/11/17 07:43:39;;;;;;;15.02;10.38;;;;;;;3.76;94.54;99745.03;4974661;28;20022;-72
2022/11/17 07:46:05;;;;;;;25.88;11.00;;;;;;;3.87;93.85;99742.22;4964905;28;20037;-72
2022/11/17 07:48:31;;;;;;;14.25;10.20;;;;;;;3.83;93.79;99746.16;4983230;28;20043;-71
2022/11/17 07:51:01;;;;;;;22.45;10.95;;;;;;;3.85;93.71;99743.31;4940604;28;20023;-72
2022/11/17 07:53:27;;;;;;;20.85;9.95;;;;;;;3.80;94.08;99735.75;4953756;28;20035;-72
2022/11/17 07:55:53;;;;;;;14.60;10.88;;;;;;;3.81;94.11;99745.47;4946318;28;20562;-72
2022/11/17 07:58:18;;;;;;;17.38;10.63;;;;;;;3.89;93.64;99739.38;4963506;28;20034;-72
2022/11/17 08:00:44;;;;;;;17.52;11.10;;;;;;;3.85;93.53;99738.84;4948783;28;20027;-72
2022/11/17 08:03:09;;;;;;;20.05;10.93;;;;;;;3.75;94.17;99732.63;4948563;28;20093;-70
2022/11/17 08:05:37;;;;;;;15.45;10.75;;;;;;;3.81;93.89;99732.06;4945389;28;20023;-70
2022/11/17 08:08:04;;;;;;;15.20;10.70;;;;;;;3.76;93.96;99734.31;4947997;28;20038;-70
2022/11/17 08:10:30;;;;;;;15.73;10.70;;;;;;;3.96;93.59;99746.69;4948650;28;20150;-71
2022/11/17 08:12:57;;;;;;;15.93;10.43;;;;;;;3.81;94.04;99732.06;4947753;28;20035;-70
2022/11/17 08:15:22;;;;;;;17.92;11.90;;;;;;;3.84;93.77;99729.09;4949442;28;20042;-70
2022/11/17 08:17:55;;;;;;;15.68;11.40;;;;;;;3.70;94.24;99721.50;4948965;28;20019;-71
2022/11/17 08:20:21;;;;;;;19.60;10.63;;;;;;;3.73;94.23;99724.75;4950062;28;20027;-70
2022/11/17 08:22:48;;;;;;;16.63;10.82;;;;;;;3.76;94.32;99734.31;4950418;28;20030;-71
2022/11/17 08:25:14;;;;;;;15.00;10.50;;;;;;;3.76;94.81;99728.97;4949032;28;20038;-71
2022/11/17 08:27:40;;;;;;;19.02;11.25;;;;;;;3.76;94.89;99728.97;4948195;28;20114;-70
2022/11/17 08:30:08;;;;;;;17.70;11.13;;;;;;;3.90;94.67;99725.84;4963821;28;20019;-70
2022/11/17 08:32:34;;;;;;;16.20;11.20;;;;;;;3.98;94.26;99728.66;4948927;28;20022;-70
2022/11/17 08:35:00;;;;;;;15.25;10.23;;;;;;;3.91;94.26;99721.34;4947892;28;20047;-70
2022/11/17 08:37:25;;;;;;;16.33;11.00;;;;;;;3.77;95.12;99725.31;4963592;28;20016;-70
2022/11/17 08:39:50;;;;;;;17.85;12.38;;;;;;;3.75;95.00;99716.59;4948043;28;20020;-70
2022/11/17 08:42:16;;;;;;;37.80;12.48;;;;;;;3.82;95.00;99723.03;4949669;28;20027;-71
2022/11/17 08:44:41;;;;;;;18.48;11.32;;;;;;;3.91;94.78;99724.88;4946460;28;20055;-70
2022/11/17 08:47:07;;;;;;;16.73;11.60;;;;;;;3.94;94.44;99721.91;4949735;28;20049;-70
2022/11/17 08:49:32;;;;;;;20.17;11.23;;;;;;;4.03;93.83;99718.34;4948696;28;20212;-71
2022/11/17 08:51:57;;;;;;;16.83;11.80;;;;;;;3.93;94.63;99720.22;4944940;28;20023;-70
2022/11/17 08:54:23;;;;;;;17.27;12.15;;;;;;;4.01;94.19;99712.31;4947531;28;20033;-71
2022/11/17 08:56:48;;;;;;;16.45;11.43;;;;;;;3.98;94.91;99723.31;4949774;28;20098;-70
2022/11/17 08:59:14;;;;;;;18.23;10.93;;;;;;;3.86;95.34;99708.41;4946702;28;20057;-69
2022/11/17 09:01:39;;;;;;;18.33;12.75;;;;;;;3.94;95.01;99716.53;4944914;28;20118;-71
2022/11/17 09:04:05;;;;;;;23.40;12.18;;;;;;;4.09;94.73;99720.44;4954586;28;20054;-70
2022/11/17 09:06:30;;;;;;;24.83;12.50;;;;;;;4.23;94.15;99710.25;4948498;28;20031;-70
2022/11/17 09:08:56;;;;;;;17.40;11.63;;;;;;;4.01;94.47;99701.59;4967616;28;20018;-71
2022/11/17 09:11:21;;;;;;;18.20;11.90;;;;;;;4.04;95.04;99712.03;4949501;28;20025;-70
2022/11/17 09:13:46;;;;;;;14.23;10.50;;;;;;;4.11;94.85;99711.41;4956401;28;20029;-70
2022/11/17 09:16:13;;;;;;;17.08;11.23;;;;;;;4.05;95.08;99705.69;4962956;28;20031;-71
2022/11/17 09:18:39;;;;;;;16.98;11.30;;;;;;;4.22;94.47;99708.56;4948992;28;20070;-71
2022/11/17 09:21:11;;;;;;;18.60;11.75;;;;;;;4.09;94.96;99709.72;4949600;28;20035;-71
2022/11/17 09:23:36;;;;;;;;;;;;;;;4.07;95.31;99700.16;4963518;28;20035;-71
2022/11/17 09:26:07;;;;;;;20.45;11.60;;;;;;;4.13;95.28;99698.75;4958736;28;19972;-70
2022/11/17 09:28:32;;;;;;;19.65;12.73;;;;;;;4.06;95.13;99683.25;4952025;28;20110;-71
2022/11/17 09:30:58;;;;;;;19.70;13.15;;;;;;;4.04;94.97;99679.88;4946231;28;20143;-71
2022/11/17 09:33:23;;;;;;;18.67;12.82;;;;;;;4.07;95.45;99695.66;4950522;28;20081;-71
2022/11/17 09:35:49;;;;;;;23.75;13.20;;;;;;;4.11;95.29;99690.00;4946894;28;20023;-71
2022/11/17 09:38:15;;;;;;;25.17;13.52;;;;;;;4.15;95.43;99694.91;4945944;28;20039;-70
2022/11/17 09:40:41;;;;;;;21.98;12.43;;;;;;;4.24;94.96;99679.81;4952114;28;20054;-70
2022/11/17 09:43:33;;;;;;;19.25;12.98;;;;;;;4.22;94.90;99708.56;4951890;28;20078;-70
2022/11/17 09:46:26;;;;;;;22.63;14.23;;;;;;;4.13;95.79;99704.09;4942301;28;20057;-70
2022/11/17 09:49:06;;;;;;;20.85;12.43;;;;;;;4.24;95.31;99706.63;4948702;28;20023;-70
2022/11/17 09:51:35;;;;;;;21.70;14.60;;;;;;;4.15;95.23;99686.03;4947756;28;20019;-71
2022/11/17 09:54:17;;;;;;;20.30;13.40;;;;;;;4.33;94.78;99700.38;4952150;28;20122;-71
2022/11/17 09:56:45;;;;;;;21.33;12.93;;;;;;;4.32;94.59;99688.81;4946644;28;20071;-69
2022/11/17 09:59:14;;;;;;;20.58;14.05;;;;;;;4.30;95.01;99684.56;4946465;28;20038;-68
2022/11/17 10:01:39;;;;;;;22.17;12.85;;;;;;;4.28;95.01;99678.50;4954991;28;20054;-68
2022/11/17 10:04:15;;;;;;;21.77;12.50;;;;;;;4.33;94.80;99689.66;4942435;28;20065;-68
2022/11/17 10:06:45;;;;;;;23.55;13.00;;;;;;;4.30;95.37;99695.28;4944016;28;20093;-68
2022/11/17 10:09:40;;;;;;;22.95;13.80;;;;;;;4.32;95.41;99682.59;4945687;28;20038;-68
2022/11/17 10:12:30;;;;;;;17.73;12.35;;;;;;;4.37;94.83;99680.34;4939730;28;20030;-68
2022/11/17 10:14:56;;;;;;;22.52;12.45;;;;;;;4.40;94.93;99669.31;4944109;28;20062;-68
2022/11/17 10:17:21;;;;;;;19.10;12.48;;;;;;;4.49;94.67;99663.03;4944630;28;20062;-68
2022/11/17 10:19:46;;;;;;;21.98;14.52;;;;;;;4.35;95.09;99676.94;4966338;28;20038;-70
2022/11/17 10:22:22;;;;;;;21.98;14.77;;;;;;;4.36;95.00;99678.63;4947392;28;20030;-68
2022/11/17 10:24:49;;;;;;;22.45;14.45;;;;;;;4.44;95.00;99667.19;4945585;28;20023;-71
2022/11/17 10:27:31;;;;;;;26.02;13.73;;;;;;;4.39;94.89;99651.53;5082650;27;20408;-68
2022/11/17 10:30:08;;;;;;;22.42;13.75;;;;;;;4.43;95.12;99669.00;5066278;28;20125;-69
2022/11/17 10:32:36;;;;;;;20.73;14.93;;;;;;;4.36;95.28;99646.47;5072136;28;20074;-69
2022/11/17 10:35:22;;;;;;;24.73;14.65;;;;;;;4.49;94.76;99657.69;5086514;28;20064;-68
2022/11/17 10:38:19;;;;;;;21.70;14.70;;;;;;;4.42;94.95;99651.22;5081928;28;20032;-69
2022/11/17 10:40:50;;;;;;;22.65;14.15;;;;;;;4.41;95.07;99644.19;5069931;28;20048;-67
2022/11/17 10:43:20;;;;;;;24.07;13.93;;;;;;;4.43;94.77;99631.47;5081558;28;20035;-67
2022/11/17 10:45:48;;;;;;;25.20;15.05;;;;;;;4.53;95.10;99640.31;5082495;28;20063;-68
2022/11/17 10:48:23;;;;;;;19.55;14.18;;;;;;;4.54;94.54;99628.59;5083963;28;20032;-67
2022/11/17 10:50:53;;;;;;;22.02;13.93;;;;;;;4.58;94.42;99640.72;5065130;28;20068;-69
2022/11/17 10:53:26;;;;;;;23.50;15.40;;;;;;;4.42;95.14;99623.59;5070166;28;20061;-69
2022/11/17 10:56:17;;;;;;;21.23;15.32;;;;;;;4.57;94.83;99628.31;5080938;28;20063;-69
2022/11/17 10:59:07;;;;;;;26.27;14.68;;;;;;;4.53;95.59;99626.91;5068801;28;20052;-68
2022/11/17 11:01:35;;;;;;;25.58;17.30;;;;;;;4.36;98.07;99617.00;5077794;28;20032;-68
2022/11/17 11:04:03;;;;;;;27.27;17.35;;;;;;;4.33;100.00;99611.94;5073242;28;20028;-69
2022/11/17 11:06:31;;;;;;;30.80;18.08;;;;;;;4.18;100.00;99613.44;5082255;28;20485;-69
2022/11/17 11:09:04;;;;;;;30.52;17.23;;;;;;;4.12;100.00;99589.94;5077024;28;20062;-69
2022/11/17 11:11:48;;;;;;;28.83;18.75;;;;;;;4.03;100.00;99605.88;5081810;28;20024;-69
2022/11/17 11:14:18;;;;;;;29.73;17.17;;;;;;;4.08;100.00;99619.66;5071916;28;20044;-69
2022/11/17 11:16:46;;;;;;;32.40;19.10;;;;;;;4.00;100.00;99614.22;5079113;28;20024;-71
2022/11/17 11:19:15;;;;;;;29.10;19.40;;;;;;;3.96;100.00;99569.97;5075575;28;20118;-70
2022/11/17 11:21:58;;;;;;;31.73;19.80;;;;;;;3.99;100.00;99612.53;5080197;28;20541;-70
2022/11/17 11:24:42;;;;;;;28.80;19.35;;;;;;;4.06;100.00;99613.63;5085791;28;20035;-69
2022/11/17 11:27:26;;;;;;;29.13;19.15;;;;;;;4.02;100.00;99612.22;5077527;28;20034;-71
2022/11/17 11:30:08;;;;;;;26.33;18.55;;;;;;;4.05;100.00;99611.94;5085894;28;20036;-71
2022/11/17 11:33:10;;;;;;;30.15;20.17;;;;;;;4.01;100.00;99615.88;5081083;28;20043;-71
2022/11/17 11:36:03;;;;;;;34.13;19.80;;;;;;;4.09;100.00;99613.31;5081998;28;20103;-70
2022/11/17 11:38:50;;;;;;;33.65;21.02;;;;;;;4.11;100.00;99598.94;5067024;28;20414;-70
2022/11/17 11:41:38;;;;;;;28.35;19.48;;;;;;;4.03;100.00;99591.63;5064055;28;20035;-72
2022/11/17 11:44:16;;;;;;;33.33;17.77;;;;;;;3.97;100.00;99577.00;5063265;28;20043;-71
2022/11/17 11:46:58;;;;;;;31.05;19.30;;;;;;;4.04;100.00;99610.25;5064470;28;20028;-71
2022/11/17 11:49:35;;;;;;;32.60;20.08;;;;;;;4.01;100.00;99599.81;5066777;28;20098;-69
2022/11/17 11:52:05;;;;;;;24.63;17.70;;;;;;;3.96;100.00;99596.75;5062671;28;20024;-70
2022/11/17 11:54:39;;;;;;;25.08;18.25;;;;;;;4.02;100.00;99596.16;5054178;28;20032;-68
2022/11/17 11:57:05;;;;;;;28.45;18.42;;;;;;;4.03;100.00;99589.81;5057320;28;20020;-68
2022/11/17 11:59:46;;;;;;;34.80;20.17;;;;;;;3.95;100.00;99573.63;5059086;28;20032;-67
2022/11/17 12:02:12;;;;;;;;;;;;;;;3.88;100.00;99582.41;5051996;28;20594;-68
2022/11/17 12:04:49;;;;;;;32.28;20.15;;;;;;;3.83;100.00;99596.22;5062852;28;19912;-69
2022/11/17 12:07:21;;;;;;;34.63;19.33;;;;;;;3.80;100.00;99581.31;5060330;28;20063;-69
2022/11/17 12:09:56;;;;;;;32.65;20.73;;;;;;;3.90;100.00;99597.31;5063564;28;20394;-70
2022/11/17 12:12:29;;;;;;;31.35;20.20;;;;;;;3.92;100.00;99568.59;5062466;28;20412;-71
2022/11/17 12:15:11;;;;;;;33.47;21.65;;;;;;;3.74;100.00;99589.09;5064978;28;20166;-70
2022/11/17 12:17:55;;;;;;;30.17;19.90;;;;;;;3.73;100.00;99590.94;5061572;28;20073;-71
2022/11/17 12:20:30;;;;;;;40.17;21.48;;;;;;;3.85;100.00;99594.28;5059142;28;20032;-71
2022/11/17 12:23:35;;;;;;;32.15;21.83;;;;;;;3.85;100.00;99593.41;5060946;28;20119;-71
2022/11/17 12:26:01;;;;;;;36.65;21.77;;;;;;;3.85;100.00;99594.28;5053023;28;20443;-71
2022/11/17 12:28:36;;;;;;;38.35;22.48;;;;;;;3.92;100.00;99606.06;5053359;28;20059;-72
2022/11/17 12:31:03;;;;;;;39.53;25.00;;;;;;;3.81;100.00;99595.53;5058162;28;20024;-72